createdAt,value
2023-09-24T00:01:06.979Z,10.76
2023-09-24T00:03:34.331Z,10.74
2023-09-24T00:06:07.906Z,10.69
2023-09-24T00:08:35.076Z,10.69
2023-09-24T00:11:03.705Z,10.67
2023-09-24T00:13:35.088Z,10.67
2023-09-24T00:16:07.396Z,10.71
2023-09-24T00:18:35.348Z,10.75
2023-09-24T00:21:03.317Z,10.74
2023-09-24T00:23:30.448Z,10.73
2023-09-24T00:25:58.257Z,10.65
2023-09-24T00:28:25.394Z,10.64
2023-09-24T00:30:56.515Z,10.51
2023-09-24T00:33:25.098Z,10.49
2023-09-24T00:35:53.184Z,10.45
2023-09-24T00:38:21.615Z,10.52
2023-09-24T00:40:48.832Z,10.50
2023-09-24T00:43:45.662Z,10.49
2023-09-24T00:46:14.341Z,10.47
2023-09-24T00:48:41.783Z,10.48
2023-09-24T00:51:19.949Z,10.51
2023-09-24T00:53:48.600Z,10.42
2023-09-24T00:56:16.079Z,10.44
2023-09-24T00:58:51.631Z,10.39
2023-09-24T01:01:21.228Z,10.37
2023-09-24T01:03:51.359Z,10.38
2023-09-24T01:06:18.896Z,10.37
2023-09-24T01:08:47.155Z,10.37
2023-09-24T01:11:14.553Z,10.37
2023-09-24T01:13:44.584Z,10.33
2023-09-24T01:16:14.215Z,10.30
2023-09-24T01:18:43.307Z,10.17
2023-09-24T01:21:16.578Z,10.09
2023-09-24T01:23:47.583Z,10.07
2023-09-24T01:26:19.569Z,10.10
2023-09-24T01:28:48.273Z,10.02
2023-09-24T01:31:19.953Z,10.01
2023-09-24T01:33:48.985Z,10.07
2023-09-24T01:36:18.783Z,10.05
2023-09-24T01:38:46.880Z,10.10
2023-09-24T01:41:14.302Z,10.09
2023-09-24T01:43:45.137Z,10.09
2023-09-24T01:46:15.400Z,10.13
2023-09-24T01:48:45.019Z,10.18
2023-09-24T01:51:12.899Z,10.23
2023-09-24T01:53:41.468Z,10.21
2023-09-24T01:56:09.777Z,10.24
2023-09-24T01:58:39.185Z,10.23
2023-09-24T02:01:08.304Z,10.25
2023-09-24T02:03:36.501Z,10.28
2023-09-24T02:06:05.168Z,10.29
2023-09-24T02:08:32.693Z,10.28
2023-09-24T02:11:00.540Z,10.30
2023-09-24T02:13:28.776Z,10.29
2023-09-24T02:15:56.104Z,10.27
2023-09-24T02:18:24.175Z,10.25
2023-09-24T02:20:53.946Z,10.23
2023-09-24T02:23:24.513Z,10.26
2023-09-24T02:25:51.893Z,10.28
2023-09-24T02:28:20.291Z,10.28
2023-09-24T02:30:48.917Z,10.17
2023-09-24T02:33:16.852Z,10.15
2023-09-24T02:35:44.255Z,10.16
2023-09-24T02:38:11.718Z,10.15
2023-09-24T02:40:40.269Z,10.16
2023-09-24T02:43:07.506Z,10.14
2023-09-24T02:45:34.914Z,10.07
2023-09-24T02:48:05.436Z,10.07
2023-09-24T02:50:33.820Z,9.97
2023-09-24T02:53:06.612Z,9.96
2023-09-24T02:55:34.996Z,9.91
2023-09-24T02:58:06.787Z,9.96
2023-09-24T03:00:43.366Z,9.93
2023-09-24T03:03:11.678Z,9.92
2023-09-24T03:05:39.765Z,9.85
2023-09-24T03:08:07.148Z,9.88
2023-09-24T03:10:36.773Z,9.87
2023-09-24T03:13:07.876Z,9.89
2023-09-24T03:15:35.747Z,9.88
2023-09-24T03:18:04.629Z,9.86
2023-09-24T03:20:31.905Z,9.84
2023-09-24T03:23:04.757Z,9.80
2023-09-24T03:25:32.975Z,9.78
2023-09-24T03:28:02.246Z,9.75
2023-09-24T03:30:30.276Z,9.71
2023-09-24T03:32:58.451Z,9.70
2023-09-24T03:35:27.957Z,9.76
2023-09-24T03:37:56.239Z,9.74
2023-09-24T03:40:28.540Z,9.72
2023-09-24T03:42:57.078Z,9.72
2023-09-24T03:45:26.200Z,9.63
2023-09-24T03:47:56.511Z,9.67
2023-09-24T03:50:24.077Z,9.67
2023-09-24T03:52:52.812Z,9.65
2023-09-24T03:55:21.296Z,9.65
2023-09-24T03:57:49.483Z,9.69
2023-09-24T04:00:20.868Z,9.73
2023-09-24T04:02:50.833Z,9.64
2023-09-24T04:05:22.955Z,9.63
2023-09-24T04:07:56.189Z,9.54
2023-09-24T04:10:25.390Z,9.53
2023-09-24T04:12:52.956Z,9.55
2023-09-24T04:15:22.082Z,9.50
2023-09-24T04:17:52.396Z,9.41
2023-09-24T04:20:21.370Z,9.30
2023-09-24T04:22:52.752Z,9.25
2023-09-24T04:25:25.280Z,9.31
2023-09-24T04:27:52.464Z,9.27
2023-09-24T04:30:20.704Z,9.34
2023-09-24T04:32:55.305Z,9.26
2023-09-24T04:35:22.956Z,9.27
2023-09-24T04:37:52.256Z,9.30
2023-09-24T04:40:22.795Z,9.23
2023-09-24T04:42:52.149Z,9.28
2023-09-24T04:45:20.052Z,9.21
2023-09-24T04:47:50.122Z,9.23
2023-09-24T04:50:18.851Z,9.22
2023-09-24T04:52:48.736Z,9.25
2023-09-24T04:55:16.055Z,9.27
2023-09-24T04:57:49.215Z,9.24
2023-09-24T05:00:17.955Z,9.22
2023-09-24T05:02:45.854Z,9.25
2023-09-24T05:05:13.396Z,9.27
2023-09-24T05:07:41.521Z,9.26
2023-09-24T05:10:11.643Z,9.31
2023-09-24T05:12:38.941Z,9.33
2023-09-24T05:15:06.593Z,9.38
2023-09-24T05:17:37.129Z,9.46
2023-09-24T05:20:05.396Z,9.50
2023-09-24T05:22:32.675Z,9.59
2023-09-24T05:24:59.885Z,9.57
2023-09-24T05:27:31.757Z,9.64
2023-09-24T05:29:58.962Z,9.74
2023-09-24T05:32:26.365Z,9.75
2023-09-24T05:34:53.845Z,9.74
2023-09-24T05:37:21.618Z,9.72
2023-09-24T05:39:48.729Z,9.74
2023-09-24T05:42:15.974Z,9.79
2023-09-24T05:44:44.091Z,9.81
2023-09-24T05:47:12.357Z,9.86
2023-09-24T05:49:39.612Z,9.85
2023-09-24T05:52:07.167Z,9.95
2023-09-24T05:54:34.438Z,9.98
2023-09-24T05:57:02.965Z,10.00
2023-09-24T05:59:30.217Z,10.06
2023-09-24T06:01:57.500Z,10.06
2023-09-24T06:04:24.824Z,10.14
2023-09-24T06:06:52.217Z,10.22
2023-09-24T06:09:19.379Z,10.21
2023-09-24T06:11:46.632Z,10.36
2023-09-24T06:14:13.932Z,10.40
2023-09-24T06:16:41.464Z,10.45
2023-09-24T06:19:08.741Z,10.42
2023-09-24T06:21:36.391Z,10.47
2023-09-24T06:24:03.843Z,10.47
2023-09-24T06:26:32.124Z,10.58
2023-09-24T06:29:10.102Z,10.63
2023-09-24T06:31:39.365Z,10.69
2023-09-24T06:34:06.943Z,10.73
2023-09-24T06:36:34.532Z,10.76
2023-09-24T06:39:01.785Z,10.81
2023-09-24T06:41:29.834Z,10.82
2023-09-24T06:43:57.022Z,10.85
2023-09-24T06:46:24.163Z,10.92
2023-09-24T06:48:53.217Z,10.98
2023-09-24T06:51:21.530Z,10.99
2023-09-24T06:53:51.910Z,11.02
2023-09-24T06:56:19.493Z,11.03
2023-09-24T06:58:47.164Z,11.12
2023-09-24T07:01:14.353Z,11.12
2023-09-24T07:03:41.629Z,11.21
2023-09-24T07:06:09.258Z,11.21
2023-09-24T07:08:36.810Z,11.28
2023-09-24T07:11:22.793Z,11.39
2023-09-24T07:13:50.582Z,11.47
2023-09-24T07:16:19.944Z,11.46
2023-09-24T07:18:48.194Z,11.49
2023-09-24T07:21:31.020Z,11.59
2023-09-24T07:24:02.521Z,11.57
2023-09-24T07:26:30.033Z,11.54
2023-09-24T07:28:57.244Z,11.60
2023-09-24T07:31:29.674Z,11.66
2023-09-24T07:33:59.320Z,11.71
2023-09-24T07:38:57.444Z,11.74
2023-09-24T07:41:24.716Z,11.82
2023-09-24T07:43:51.824Z,11.97
2023-09-24T07:46:20.608Z,12.06
2023-09-24T07:48:49.642Z,12.10
2023-09-24T07:51:20.336Z,12.24
2023-09-24T07:53:48.427Z,12.34
2023-09-24T07:56:15.803Z,12.43
2023-09-24T07:58:43.303Z,12.46
2023-09-24T08:01:15.523Z,12.49
2023-09-24T08:03:48.571Z,12.53
2023-09-24T08:06:16.113Z,12.49
2023-09-24T08:11:13.348Z,12.64
2023-09-24T08:13:40.498Z,12.70
2023-09-24T08:16:07.909Z,12.67
2023-09-24T08:18:35.547Z,12.74
2023-09-24T08:21:02.885Z,12.75
2023-09-24T08:23:30.504Z,12.80
2023-09-24T08:25:57.626Z,12.84
2023-09-24T08:28:24.764Z,12.91
2023-09-24T08:30:51.905Z,12.81
2023-09-24T08:33:19.082Z,12.80
2023-09-24T08:35:46.396Z,12.81
2023-09-24T08:38:15.156Z,12.89
2023-09-24T08:40:42.438Z,12.91
2023-09-24T08:43:11.613Z,13.02
2023-09-24T08:45:39.109Z,13.15
2023-09-24T08:48:08.952Z,13.22
2023-09-24T08:50:41.521Z,13.35
2023-09-24T08:53:14.439Z,13.42
2023-09-24T08:55:45.186Z,13.50
2023-09-24T08:58:12.394Z,13.42
2023-09-24T09:00:40.435Z,13.38
2023-09-24T09:03:07.965Z,13.36
2023-09-24T09:05:37.509Z,13.34
2023-09-24T09:08:05.598Z,13.28
2023-09-24T09:10:35.084Z,13.39
2023-09-24T09:13:12.306Z,13.49
2023-09-24T09:15:41.025Z,13.48
2023-09-24T09:18:23.326Z,13.53
2023-09-24T09:20:51.842Z,13.62
2023-09-24T09:23:35.506Z,13.72
2023-09-24T09:26:04.611Z,13.69
2023-09-24T09:28:35.772Z,13.75
2023-09-24T09:31:12.773Z,13.83
2023-09-24T09:33:44.570Z,13.93
2023-09-24T09:36:23.550Z,14.12
2023-09-24T09:38:52.395Z,14.26
2023-09-24T09:41:20.815Z,14.31
2023-09-24T09:43:49.442Z,14.36
2023-09-24T09:46:23.181Z,14.89
2023-09-24T09:48:57.531Z,15.12
2023-09-24T09:51:26.653Z,15.01
2023-09-24T09:53:55.407Z,15.24
2023-09-24T09:56:24.266Z,15.09
2023-09-24T09:58:53.154Z,14.91
2023-09-24T10:01:22.693Z,14.71
2023-09-24T10:03:52.574Z,14.76
2023-09-24T10:06:20.973Z,15.13
2023-09-24T10:08:49.041Z,15.59
2023-09-24T10:11:34.926Z,16.00
2023-09-24T10:14:06.672Z,15.70
2023-09-24T10:16:39.197Z,15.41
2023-09-24T10:19:15.985Z,15.05
2023-09-24T10:21:45.268Z,14.79
2023-09-24T10:24:15.239Z,14.53
2023-09-24T10:27:05.885Z,14.36
2023-09-24T10:30:01.011Z,14.38
2023-09-24T10:32:28.467Z,14.43
2023-09-24T10:35:08.014Z,14.43
2023-09-24T10:37:35.551Z,14.44
2023-09-24T10:40:10.530Z,14.38
2023-09-24T10:42:43.070Z,14.24
2023-09-24T10:45:11.822Z,14.21
2023-09-24T10:47:46.489Z,14.23
2023-09-24T10:50:16.534Z,14.22
2023-09-24T10:53:02.828Z,14.32
2023-09-24T10:55:34.738Z,14.33
2023-09-24T10:58:04.490Z,14.35
2023-09-24T11:00:35.529Z,14.40
2023-09-24T11:03:05.996Z,14.89
2023-09-24T11:05:42.341Z,15.46
2023-09-24T11:08:10.604Z,16.05
2023-09-24T11:10:37.776Z,16.48
2023-09-24T11:13:06.189Z,16.90
2023-09-24T11:15:36.131Z,16.99
2023-09-24T11:18:04.515Z,17.04
2023-09-24T11:20:36.578Z,16.79
2023-09-24T11:23:07.495Z,16.62
2023-09-24T11:25:34.779Z,16.26
2023-09-24T11:28:03.803Z,16.02
2023-09-24T11:30:43.817Z,15.88
2023-09-24T11:33:15.619Z,15.82
2023-09-24T11:35:43.501Z,15.71
2023-09-24T11:38:10.584Z,15.65
2023-09-24T11:40:39.538Z,15.83
2023-09-24T11:43:14.738Z,16.04
2023-09-24T11:45:48.010Z,16.14
2023-09-24T11:48:16.353Z,16.28
2023-09-24T11:50:45.873Z,16.23
2023-09-24T11:53:13.666Z,16.20
2023-09-24T11:55:42.301Z,16.15
2023-09-24T11:58:11.126Z,16.14
2023-09-24T12:00:39.803Z,16.16
2023-09-24T12:03:07.557Z,16.28
2023-09-24T12:05:35.338Z,16.38
2023-09-24T12:08:04.585Z,16.44
2023-09-24T12:10:33.959Z,16.73
2023-09-24T12:13:05.457Z,17.31
2023-09-24T12:15:33.814Z,17.64
2023-09-24T12:18:05.876Z,17.55
2023-09-24T12:20:34.335Z,17.47
2023-09-24T12:23:05.168Z,17.28
2023-09-24T12:25:32.534Z,17.14
2023-09-24T12:27:59.631Z,17.01
2023-09-24T12:30:27.647Z,16.86
2023-09-24T12:32:54.929Z,16.72
2023-09-24T12:35:22.082Z,16.65
2023-09-24T12:37:49.258Z,16.44
2023-09-24T12:40:16.499Z,16.30
2023-09-24T12:42:43.667Z,16.28
2023-09-24T12:45:11.897Z,16.49
2023-09-24T12:47:41.067Z,16.81
2023-09-24T12:50:10.476Z,17.04
2023-09-24T12:52:40.584Z,16.96
2023-09-24T12:55:11.651Z,17.06
2023-09-24T12:57:40.565Z,17.01
2023-09-24T13:00:13.169Z,16.81
2023-09-24T13:02:45.532Z,17.10
2023-09-24T13:05:14.741Z,17.56
2023-09-24T13:07:44.913Z,17.74
2023-09-24T13:10:16.596Z,17.92
2023-09-24T13:12:45.329Z,17.65
2023-09-24T13:15:13.405Z,17.62
2023-09-24T13:17:41.614Z,17.75
2023-09-24T13:20:11.278Z,17.84
2023-09-24T13:22:38.860Z,18.05
2023-09-24T13:25:06.800Z,18.20
2023-09-24T13:27:36.330Z,18.36
2023-09-24T13:30:06.611Z,18.46
2023-09-24T13:32:35.994Z,18.40
2023-09-24T13:35:05.135Z,18.50
2023-09-24T13:37:32.354Z,18.64
2023-09-24T13:40:01.306Z,18.43
2023-09-24T13:42:28.395Z,18.28
2023-09-24T13:44:55.744Z,18.16
2023-09-24T13:47:22.868Z,18.09
2023-09-24T13:49:49.994Z,18.26
2023-09-24T13:52:17.086Z,18.24
2023-09-24T13:54:44.204Z,18.18
2023-09-24T13:57:12.645Z,18.15
2023-09-24T13:59:39.933Z,17.93
2023-09-24T14:02:07.586Z,17.56
2023-09-24T14:04:34.866Z,17.27
2023-09-24T14:07:01.921Z,17.00
2023-09-24T14:09:47.815Z,16.90
2023-09-24T14:12:18.894Z,16.86
2023-09-24T14:14:46.024Z,16.68
2023-09-24T14:17:13.160Z,16.47
2023-09-24T14:19:40.266Z,16.31
2023-09-24T14:22:07.355Z,16.22
2023-09-24T14:24:34.460Z,16.09
2023-09-24T14:27:04.254Z,15.99
2023-09-24T14:29:32.377Z,15.88
2023-09-24T14:31:59.780Z,15.83
2023-09-24T14:34:27.339Z,15.82
2023-09-24T14:36:55.002Z,15.78
2023-09-24T14:39:22.456Z,15.78
2023-09-24T14:41:49.695Z,15.86
2023-09-24T14:44:17.098Z,15.91
2023-09-24T14:46:45.200Z,16.11
2023-09-24T14:49:13.349Z,16.41
2023-09-24T14:51:41.862Z,16.68
2023-09-24T14:54:10.238Z,17.03
2023-09-24T14:56:37.747Z,17.11
2023-09-24T14:59:05.010Z,17.06
2023-09-24T15:01:33.264Z,17.17
2023-09-24T15:04:00.681Z,17.41
2023-09-24T15:06:28.008Z,17.55
2023-09-24T15:08:57.334Z,17.72
2023-09-24T15:11:24.577Z,17.79
2023-09-24T15:13:52.427Z,17.80
2023-09-24T15:16:19.889Z,17.85
2023-09-24T15:18:47.122Z,17.95
2023-09-24T15:21:15.102Z,17.97
2023-09-24T15:23:42.455Z,17.98
2023-09-24T15:26:09.733Z,18.01
2023-09-24T15:28:37.072Z,17.96
2023-09-24T15:31:04.420Z,17.90
2023-09-24T15:33:31.735Z,17.85
2023-09-24T15:35:59.124Z,17.78
2023-09-24T15:38:26.938Z,17.76
2023-09-24T15:40:56.145Z,17.73
2023-09-24T15:43:23.470Z,17.68
2023-09-24T15:45:50.728Z,17.64
2023-09-24T15:48:18.115Z,17.57
2023-09-24T15:50:48.047Z,17.50
2023-09-24T15:53:16.150Z,17.43
2023-09-24T15:55:45.412Z,17.32
2023-09-24T15:58:13.981Z,17.20
2023-09-24T16:00:41.375Z,17.17
2023-09-24T16:03:08.641Z,17.07
2023-09-24T16:05:36.193Z,16.99
2023-09-24T16:08:03.588Z,16.93
2023-09-24T16:10:31.425Z,16.86
2023-09-24T16:12:58.939Z,16.74
2023-09-24T16:15:26.282Z,16.70
2023-09-24T16:17:54.196Z,16.67
2023-09-24T16:20:21.536Z,16.57
2023-09-24T16:22:50.685Z,16.52
2023-09-24T16:25:19.219Z,16.49
2023-09-24T16:27:46.811Z,16.39
2023-09-24T16:30:14.585Z,16.28
2023-09-24T16:32:41.804Z,16.16
2023-09-24T16:35:09.169Z,16.12
2023-09-24T16:37:36.612Z,16.12
2023-09-24T16:40:05.102Z,16.03
2023-09-24T16:42:32.575Z,15.98
2023-09-24T16:45:02.218Z,15.92
2023-09-24T16:47:29.574Z,15.85
2023-09-24T16:49:59.007Z,15.76
2023-09-24T16:52:26.525Z,15.61
2023-09-24T16:54:53.922Z,15.53
2023-09-24T16:57:21.233Z,15.43
2023-09-24T16:59:48.456Z,15.31
2023-09-24T17:02:15.696Z,15.23
2023-09-24T17:04:42.977Z,15.12
2023-09-24T17:07:10.441Z,15.05
2023-09-24T17:09:37.573Z,15.00
2023-09-24T17:12:05.232Z,14.99
2023-09-24T17:14:32.355Z,15.01
2023-09-24T17:16:59.506Z,14.95
2023-09-24T17:19:26.798Z,14.82
2023-09-24T17:21:54.469Z,14.70
2023-09-24T17:24:25.754Z,14.69
2023-09-24T17:26:53.497Z,14.67
2023-09-24T17:29:21.906Z,14.65
2023-09-24T17:31:49.331Z,14.62
2023-09-24T17:34:17.296Z,14.61
2023-09-24T17:36:45.266Z,14.64
2023-09-24T17:39:13.913Z,14.58
2023-09-24T17:41:41.915Z,14.44
2023-09-24T17:44:11.476Z,14.42
2023-09-24T17:46:39.023Z,14.36
2023-09-24T17:49:06.241Z,14.34
2023-09-24T17:51:33.854Z,14.32
2023-09-24T17:54:01.323Z,14.29
2023-09-24T17:56:28.485Z,14.31
2023-09-24T17:58:55.875Z,14.26
2023-09-24T18:01:26.669Z,14.16
2023-09-24T18:03:55.174Z,14.14
2023-09-24T18:06:23.100Z,14.16
2023-09-24T18:08:50.403Z,14.24
2023-09-24T18:11:17.678Z,14.25
2023-09-24T18:13:46.184Z,14.17
2023-09-24T18:16:13.703Z,14.05
2023-09-24T18:18:41.090Z,14.03
2023-09-24T18:21:08.790Z,14.05
2023-09-24T18:23:36.399Z,14.03
2023-09-24T18:26:04.093Z,14.06
2023-09-24T18:28:31.525Z,14.02
2023-09-24T18:31:01.180Z,14.00
2023-09-24T18:33:30.480Z,13.91
2023-09-24T18:35:59.211Z,13.86
2023-09-24T18:38:27.009Z,13.83
2023-09-24T18:40:56.426Z,13.85
2023-09-24T18:43:28.043Z,13.86
2023-09-24T18:46:01.734Z,13.76
2023-09-24T18:48:30.131Z,13.51
2023-09-24T18:50:58.818Z,13.55
2023-09-24T18:53:30.505Z,13.64
2023-09-24T18:56:04.579Z,13.51
2023-09-24T18:58:35.295Z,13.47
2023-09-24T19:01:09.874Z,13.46
2023-09-24T19:03:37.382Z,13.57
2023-09-24T19:06:06.518Z,13.63
2023-09-24T19:08:33.668Z,13.72
2023-09-24T19:11:00.842Z,13.61
2023-09-24T19:13:30.141Z,13.49
2023-09-24T19:16:04.722Z,13.41
2023-09-24T19:18:33.360Z,13.36
2023-09-24T19:21:01.130Z,13.29
2023-09-24T19:23:30.164Z,13.27
2023-09-24T19:25:57.250Z,13.24
2023-09-24T19:28:24.354Z,13.28
2023-09-24T19:30:51.498Z,13.27
2023-09-24T19:33:19.549Z,13.28
2023-09-24T19:35:46.769Z,13.25
2023-09-24T19:38:13.894Z,13.17
2023-09-24T19:40:41.023Z,13.15
2023-09-24T19:43:08.182Z,13.25
2023-09-24T19:45:35.448Z,13.46
2023-09-24T19:48:02.787Z,13.38
2023-09-24T19:50:30.051Z,13.33
2023-09-24T19:52:57.201Z,13.34
2023-09-24T19:55:24.298Z,13.33
2023-09-24T19:57:51.405Z,12.98
2023-09-24T20:00:19.627Z,12.83
2023-09-24T20:02:46.745Z,12.87
2023-09-24T20:05:14.326Z,12.82
2023-09-24T20:07:41.585Z,12.70
2023-09-24T20:10:16.054Z,12.76
2023-09-24T20:12:43.332Z,12.72
2023-09-24T20:15:11.100Z,12.55
2023-09-24T20:17:38.391Z,12.54
2023-09-24T20:20:06.023Z,12.45
2023-09-24T20:22:33.418Z,12.42
2023-09-24T20:25:05.965Z,12.38
2023-09-24T20:27:33.138Z,12.34
2023-09-24T20:30:00.596Z,12.38
2023-09-24T20:32:28.052Z,12.47
2023-09-24T20:34:55.515Z,12.33
2023-09-24T20:37:22.922Z,12.23
2023-09-24T20:39:50.874Z,12.23
2023-09-24T20:42:18.160Z,12.15
2023-09-24T20:44:45.258Z,12.04
2023-09-24T20:47:18.524Z,12.06
2023-09-24T20:49:46.327Z,11.97
2023-09-24T20:52:14.528Z,11.99
2023-09-24T20:54:42.114Z,11.85
2023-09-24T20:57:09.436Z,11.96
2023-09-24T20:59:48.911Z,11.86
2023-09-24T21:02:16.542Z,11.79
2023-09-24T21:04:43.842Z,11.75
2023-09-24T21:07:13.450Z,11.53
2023-09-24T21:09:40.823Z,11.63
2023-09-24T21:12:07.989Z,11.58
2023-09-24T21:14:35.127Z,11.44
2023-09-24T21:17:03.024Z,11.45
2023-09-24T21:19:30.044Z,11.44
2023-09-24T21:21:57.108Z,11.33
2023-09-24T21:24:24.210Z,11.31
2023-09-24T21:26:51.464Z,11.27
2023-09-24T21:29:19.141Z,11.25
2023-09-24T21:31:46.301Z,11.18
2023-09-24T21:34:13.549Z,11.23
2023-09-24T21:36:40.815Z,11.31
2023-09-24T21:39:08.288Z,11.24
2023-09-24T21:41:35.430Z,11.10
2023-09-24T21:44:02.587Z,11.09
2023-09-24T21:46:30.056Z,11.12
2023-09-24T21:48:59.320Z,10.98
2023-09-24T21:51:26.805Z,10.85
2023-09-24T21:53:54.918Z,10.90
2023-09-24T21:56:23.693Z,10.91
2023-09-24T21:58:51.660Z,10.87
2023-09-24T22:01:18.914Z,10.90
2023-09-24T22:03:46.134Z,10.93
2023-09-24T22:06:14.220Z,10.78
2023-09-24T22:08:41.531Z,10.78
2023-09-24T22:11:08.795Z,10.64
2023-09-24T22:13:35.990Z,10.60
2023-09-24T22:16:03.243Z,10.69
2023-09-24T22:18:30.609Z,10.65
2023-09-24T22:20:59.221Z,10.62
2023-09-24T22:23:26.801Z,10.63
2023-09-24T22:25:57.723Z,10.59
2023-09-24T22:28:25.510Z,10.55
2023-09-24T22:31:00.532Z,10.53
2023-09-24T22:33:27.815Z,10.60
2023-09-24T22:35:55.085Z,10.53
2023-09-24T22:38:22.166Z,10.33
2023-09-24T22:40:49.332Z,10.38
2023-09-24T22:43:26.197Z,10.42
2023-09-24T22:45:54.295Z,10.38
2023-09-24T22:48:21.556Z,10.30
2023-09-24T22:50:52.889Z,10.19
2023-09-24T22:53:20.771Z,10.26
2023-09-24T22:55:47.920Z,10.25
2023-09-24T22:58:15.766Z,10.20
2023-09-24T23:00:43.368Z,10.18
2023-09-24T23:03:10.872Z,10.10
2023-09-24T23:05:41.983Z,10.01
2023-09-24T23:08:09.330Z,10.06
2023-09-24T23:10:36.563Z,10.11
2023-09-24T23:13:04.375Z,10.05
2023-09-24T23:15:31.501Z,10.30
2023-09-24T23:17:59.131Z,10.23
2023-09-24T23:20:26.353Z,10.19
2023-09-24T23:22:53.568Z,10.22
2023-09-24T23:25:21.533Z,10.05
2023-09-24T23:27:48.837Z,9.99
2023-09-24T23:30:18.754Z,9.84
2023-09-24T23:32:46.708Z,9.86
2023-09-24T23:35:14.392Z,9.89
2023-09-24T23:37:41.682Z,9.89
2023-09-24T23:40:09.907Z,9.78
2023-09-24T23:42:37.182Z,9.80
2023-09-24T23:45:04.922Z,9.88
2023-09-24T23:47:32.081Z,9.72
2023-09-24T23:49:59.449Z,9.59
2023-09-24T23:52:26.742Z,9.65
2023-09-24T23:54:54.008Z,9.50
2023-09-24T23:57:21.345Z,9.53
2023-09-24T23:59:48.481Z,9.51
